Time;durP1;ratioP1;P1;durP2;ratioP2;P2;SDS_P1;SDS_P2;PMS_P1;PMS_P2;Temp;Humidity;BMP_temperature;BMP_pressure;BME280_temperature;BME280_humidity;BME280_pressure;Samples;Min_cycle;Max_cycle;Signal;HPM_P1;HPM_P2
2023/07/13 00:00:22;;;;;;;7.63;2.03;;;16.90;99.90;;;;;;5074565;28;20047;-50
2023/07/13 00:02:48;;;;;;;8.88;2.38;;;16.90;99.90;;;;;;5074014;28;20048;-50
2023/07/13 00:05:16;;;;;;;8.00;2.05;;;16.80;99.90;;;;;;5074556;28;20418;-47
2023/07/13 00:07:42;;;;;;;6.32;2.30;;;16.80;99.90;;;;;;5074261;28;20039;-49
2023/07/13 00:10:09;;;;;;;8.40;2.13;;;16.80;99.90;;;;;;5074169;28;20032;-48
2023/07/13 00:12:36;;;;;;;7.25;2.30;;;16.70;99.90;;;;;;5074159;28;20115;-52
2023/07/13 00:15:03;;;;;;;9.00;2.25;;;16.80;99.90;;;;;;5074401;28;20464;-49
2023/07/13 00:17:29;;;;;;;12.02;2.83;;;16.70;99.90;;;;;;5073977;28;20060;-47
2023/07/13 00:19:56;;;;;;;7.78;2.10;;;16.70;99.90;;;;;;5074037;28;20045;-50
2023/07/13 00:22:25;;;;;;;10.15;2.40;;;16.70;99.90;;;;;;5073833;28;20044;-46
2023/07/13 00:24:53;;;;;;;7.45;2.28;;;16.70;99.90;;;;;;5074209;28;20123;-47
2023/07/13 00:27:19;;;;;;;9.20;2.08;;;16.70;99.90;;;;;;5073938;28;20404;-49
2023/07/13 00:29:46;;;;;;;7.28;2.10;;;16.70;99.90;;;;;;5074128;28;20367;-47
2023/07/13 00:32:13;;;;;;;8.07;2.35;;;16.60;99.90;;;;;;5073910;28;20068;-46
2023/07/13 00:34:40;;;;;;;7.97;2.47;;;16.60;99.90;;;;;;5055945;28;20087;-48
2023/07/13 00:37:06;;;;;;;6.20;2.33;;;16.60;99.90;;;;;;5073802;28;20048;-51
2023/07/13 00:39:34;;;;;;;6.85;2.10;;;16.50;99.90;;;;;;5073775;28;20483;-49
2023/07/13 00:42:01;;;;;;;7.40;2.00;;;16.50;99.90;;;;;;5073868;28;20373;-50
2023/07/13 00:44:29;;;;;;;6.45;2.17;;;16.50;99.90;;;;;;5073374;28;20040;-47
2023/07/13 00:46:58;;;;;;;6.47;2.35;;;16.40;99.90;;;;;;5073500;28;20032;-50
2023/07/13 00:49:25;;;;;;;7.20;2.63;;;16.40;99.90;;;;;;5055832;28;20071;-49
2023/07/13 00:51:51;;;;;;;4.78;2.00;;;16.40;99.90;;;;;;5073366;28;20472;-50
2023/07/13 00:54:18;;;;;;;7.85;2.55;;;16.40;99.90;;;;;;5073930;28;20131;-45
2023/07/13 00:56:45;;;;;;;6.10;2.33;;;16.40;99.90;;;;;;5073046;28;20048;-49
2023/07/13 00:59:12;;;;;;;8.68;2.50;;;16.40;99.90;;;;;;5073416;28;20045;-52
2023/07/13 01:01:39;;;;;;;10.27;2.70;;;16.40;99.90;;;;;;5055474;28;20132;-48
2023/07/13 01:04:07;;;;;;;10.90;2.65;;;16.30;99.90;;;;;;5073265;28;20436;-48
2023/07/13 01:06:34;;;;;;;7.40;2.53;;;16.30;99.90;;;;;;5055784;28;20078;-47
2023/07/13 01:09:01;;;;;;;8.13;2.22;;;16.30;99.90;;;;;;5073473;28;20412;-45
2023/07/13 01:11:28;;;;;;;6.57;2.83;;;16.30;99.90;;;;;;5073483;28;20127;-50
2023/07/13 01:13:55;;;;;;;7.95;2.42;;;16.30;99.90;;;;;;5055538;28;20075;-47
2023/07/13 01:16:23;;;;;;;6.93;2.47;;;16.20;99.90;;;;;;5073357;28;20037;-47
2023/07/13 01:18:50;;;;;;;8.07;2.42;;;16.20;99.90;;;;;;5073192;28;20040;-45
2023/07/13 01:21:18;;;;;;;7.53;2.83;;;16.20;99.90;;;;;;5073397;28;20365;-45
2023/07/13 01:23:45;;;;;;;7.78;2.30;;;16.20;99.90;;;;;;5073530;28;20033;-47
2023/07/13 01:26:13;;;;;;;9.60;2.85;;;16.20;99.90;;;;;;5073027;28;20053;-49
2023/07/13 01:28:40;;;;;;;6.07;2.40;;;16.10;99.90;;;;;;5073554;28;20036;-48
2023/07/13 01:31:08;;;;;;;6.63;2.40;;;16.10;99.90;;;;;;5073414;28;20040;-49
2023/07/13 01:33:35;;;;;;;7.82;2.15;;;16.00;99.90;;;;;;5072983;28;20438;-45
2023/07/13 01:36:02;;;;;;;8.38;2.78;;;16.00;99.90;;;;;;5073206;28;20047;-46
2023/07/13 01:38:28;;;;;;;10.07;2.35;;;16.00;99.90;;;;;;5072860;28;20047;-45
2023/07/13 01:40:55;;;;;;;9.52;2.58;;;15.90;99.90;;;;;;5054766;28;20047;-45
2023/07/13 01:43:24;;;;;;;9.55;2.47;;;15.90;99.90;;;;;;5072696;28;20423;-48
2023/07/13 01:45:51;;;;;;;8.05;2.20;;;15.90;99.90;;;;;;5055031;28;20131;-46
2023/07/13 01:48:18;;;;;;;8.98;2.67;;;15.80;99.90;;;;;;5054833;28;20071;-47
2023/07/13 01:50:45;;;;;;;8.73;2.80;;;15.80;99.90;;;;;;5055047;28;20055;-49
2023/07/13 01:53:11;;;;;;;10.85;2.50;;;15.80;99.90;;;;;;5055265;28;20048;-49
2023/07/13 01:55:38;;;;;;;8.77;2.55;;;15.80;99.90;;;;;;5055119;28;20143;-47
2023/07/13 01:58:05;;;;;;;7.95;2.55;;;15.70;99.90;;;;;;5054773;28;20099;-50
2023/07/13 02:00:32;;;;;;;7.50;2.60;;;15.70;99.90;;;;;;5054911;28;20494;-46
2023/07/13 02:03:01;;;;;;;4.07;2.08;;;15.70;99.90;;;;;;5072890;28;20045;-47
2023/07/13 02:05:28;;;;;;;7.18;2.50;;;15.70;99.90;;;;;;5072887;28;20037;-51
2023/07/13 02:07:55;;;;;;;5.78;2.45;;;15.70;99.90;;;;;;5055254;28;20045;-48
2023/07/13 02:10:22;;;;;;;9.73;2.10;;;15.60;99.90;;;;;;5058546;28;20040;-50
2023/07/13 02:12:50;;;;;;;7.47;2.45;;;15.60;99.90;;;;;;5058259;28;20139;-48
2023/07/13 02:15:17;;;;;;;7.47;2.28;;;15.60;99.90;;;;;;5058618;28;20086;-46
2023/07/13 02:17:44;;;;;;;7.65;2.47;;;15.60;99.90;;;;;;5075928;28;20078;-48
2023/07/13 02:20:12;;;;;;;6.28;2.40;;;15.60;99.90;;;;;;5058485;28;20076;-49
2023/07/13 02:22:38;;;;;;;8.15;2.60;;;15.50;99.90;;;;;;5058185;28;20064;-51
2023/07/13 02:25:06;;;;;;;9.00;2.47;;;15.50;99.90;;;;;;5058216;28;20041;-46
2023/07/13 02:27:33;;;;;;;7.75;2.78;;;15.50;99.90;;;;;;5058513;28;20041;-47
2023/07/13 02:30:00;;;;;;;10.13;2.70;;;15.50;99.90;;;;;;5058626;28;20043;-46
2023/07/13 02:32:27;;;;;;;7.03;2.50;;;15.50;99.90;;;;;;5058118;28;20045;-45
2023/07/13 02:34:53;;;;;;;10.02;2.55;;;15.50;99.90;;;;;;5076156;28;20534;-45
2023/07/13 02:37:21;;;;;;;5.90;2.30;;;15.50;99.90;;;;;;5058127;28;20474;-51
2023/07/13 02:39:48;;;;;;;10.43;2.60;;;15.50;99.90;;;;;;5057904;28;20064;-44
2023/07/13 02:42:15;;;;;;;6.72;2.45;;;15.50;99.90;;;;;;5076173;28;20044;-47
2023/07/13 02:44:43;;;;;;;7.15;2.45;;;15.50;99.90;;;;;;5057928;28;20040;-46
2023/07/13 02:47:10;;;;;;;5.97;2.28;;;15.50;99.90;;;;;;5057866;28;20037;-48
2023/07/13 02:49:37;;;;;;;6.07;2.20;;;15.50;99.90;;;;;;5076036;28;20047;-47
2023/07/13 02:52:04;;;;;;;8.30;2.60;;;15.50;99.90;;;;;;5075784;28;20442;-44
2023/07/13 02:54:31;;;;;;;8.15;2.55;;;15.50;99.90;;;;;;5075430;28;20102;-46
2023/07/13 02:56:58;;;;;;;6.93;2.17;;;15.40;99.90;;;;;;5076105;28;20541;-46
2023/07/13 02:59:25;;;;;;;5.82;2.33;;;15.40;99.90;;;;;;5075483;28;20047;-45
2023/07/13 03:01:52;;;;;;;7.63;2.55;;;15.40;99.90;;;;;;5062397;28;20044;-45
2023/07/13 03:04:19;;;;;;;7.40;2.45;;;15.40;99.90;;;;;;5074226;28;20089;-49
2023/07/13 03:06:47;;;;;;;8.82;2.42;;;15.40;99.90;;;;;;5074107;28;20071;-46
2023/07/13 03:09:14;;;;;;;5.75;2.13;;;15.30;99.90;;;;;;5073932;28;20498;-45
2023/07/13 03:11:45;;;;;;;7.25;2.38;;;15.30;99.90;;;;;;5074493;28;20483;-45
2023/07/13 03:14:21;;;;;;;4.68;2.20;;;15.30;99.90;;;;;;5073902;28;20048;-46
2023/07/13 03:16:48;;;;;;;7.13;2.53;;;15.20;99.90;;;;;;5057626;28;20213;-47
2023/07/13 03:19:15;;;;;;;7.60;2.15;;;15.20;99.90;;;;;;5074964;28;20392;-46
2023/07/13 03:21:46;;;;;;;6.18;2.25;;;15.20;99.90;;;;;;5074276;28;20123;-51
2023/07/13 03:24:13;;;;;;;8.02;2.35;;;15.20;99.90;;;;;;5073806;28;20100;-48
2023/07/13 03:26:41;;;;;;;6.25;2.20;;;15.10;99.90;;;;;;5075762;28;20049;-48
2023/07/13 03:29:08;;;;;;;9.38;2.85;;;15.10;99.90;;;;;;5073772;28;20041;-46
2023/07/13 03:31:35;;;;;;;10.73;2.60;;;15.10;99.90;;;;;;5075301;28;20048;-47
2023/07/13 03:34:02;;;;;;;7.13;2.47;;;15.10;99.90;;;;;;5073786;28;20048;-47
2023/07/13 03:36:29;;;;;;;7.70;2.40;;;15.00;99.90;;;;;;5073525;28;20072;-45
2023/07/13 03:38:59;;;;;;;6.38;2.30;;;15.00;99.90;;;;;;5073713;28;20049;-47
2023/07/13 03:41:34;;;;;;;9.85;2.70;;;15.00;99.90;;;;;;5073572;28;20505;-50
2023/07/13 03:44:01;;;;;;;12.60;2.72;;;14.90;99.90;;;;;;5073241;28;20495;-53
2023/07/13 03:46:28;;;;;;;8.88;2.40;;;14.90;99.90;;;;;;5074814;28;20039;-48
2023/07/13 03:48:56;;;;;;;7.85;2.10;;;14.80;99.90;;;;;;5073417;28;20565;-45
2023/07/13 03:51:22;;;;;;;12.85;3.13;;;14.80;99.90;;;;;;5074930;28;20383;-45
2023/07/13 03:53:49;;;;;;;6.25;2.45;;;14.80;99.90;;;;;;5074478;28;20135;-46
2023/07/13 03:56:18;;;;;;;9.63;2.60;;;14.80;99.90;;;;;;5073301;28;20055;-49
2023/07/13 03:58:45;;;;;;;7.28;2.40;;;14.80;99.90;;;;;;5056642;28;20135;-45
2023/07/13 04:01:16;;;;;;;5.45;1.98;;;14.80;99.90;;;;;;5056684;28;20044;-45
2023/07/13 04:03:44;;;;;;;10.05;2.67;;;14.80;99.90;;;;;;5036530;28;20045;-45
2023/07/13 04:06:11;;;;;;;8.50;2.88;;;14.80;99.90;;;;;;5037075;28;20495;-47
2023/07/13 04:08:39;;;;;;;5.85;2.60;;;14.80;99.90;;;;;;5054417;28;20379;-47
2023/07/13 04:11:06;;;;;;;5.78;2.13;;;14.80;99.90;;;;;;5036734;28;20148;-44
2023/07/13 04:13:33;;;;;;;6.07;2.30;;;14.70;99.90;;;;;;5054257;28;20045;-45
2023/07/13 04:16:00;;;;;;;8.23;2.60;;;14.70;99.90;;;;;;5028963;28;20140;-47
2023/07/13 04:18:27;;;;;;;8.25;2.65;;;14.70;99.90;;;;;;5054477;28;20139;-46
2023/07/13 04:20:54;;;;;;;4.55;2.03;;;14.70;99.90;;;;;;5054319;28;20041;-45
2023/07/13 04:23:20;;;;;;;7.65;3.17;;;14.80;99.90;;;;;;5054124;28;20045;-47
2023/07/13 04:25:49;;;;;;;7.22;2.10;;;14.80;99.90;;;;;;5054015;28;20048;-47
2023/07/13 04:28:16;;;;;;;7.57;2.33;;;14.80;99.90;;;;;;5054610;28;20048;-49
2023/07/13 04:30:42;;;;;;;6.93;2.10;;;14.80;99.90;;;;;;5035818;28;20119;-47
2023/07/13 04:33:09;;;;;;;7.10;2.22;;;14.80;99.90;;;;;;5054009;28;20033;-44
2023/07/13 04:35:37;;;;;;;7.25;2.38;;;14.80;99.90;;;;;;5053896;28;20131;-51
2023/07/13 04:38:04;;;;;;;7.97;2.35;;;14.80;99.90;;;;;;5053972;28;20049;-47
2023/07/13 04:40:30;;;;;;;6.53;2.20;;;14.90;99.90;;;;;;5054214;28;20040;-48
2023/07/13 04:42:57;;;;;;;7.25;2.50;;;14.90;99.90;;;;;;5053786;28;20051;-44
2023/07/13 04:45:24;;;;;;;7.70;2.30;;;14.90;99.90;;;;;;5053907;28;20123;-47
2023/07/13 04:47:53;;;;;;;6.78;2.33;;;14.90;99.90;;;;;;5053902;28;20049;-51
2023/07/13 04:50:23;;;;;;;8.15;2.15;;;15.00;99.90;;;;;;5054003;28;20041;-49
2023/07/13 04:52:50;;;;;;;7.20;2.00;;;15.20;99.90;;;;;;5053656;28;20495;-45
2023/07/13 04:55:17;;;;;;;6.05;1.90;;;15.30;99.90;;;;;;5053866;28;20045;-47
2023/07/13 04:57:43;;;;;;;6.18;2.00;;;15.40;99.90;;;;;;5036069;28;20073;-52
2023/07/13 05:00:11;;;;;;;6.82;2.00;;;15.50;99.90;;;;;;5053608;28;20040;-51
2023/07/13 05:02:38;;;;;;;8.00;2.00;;;15.60;99.90;;;;;;5044250;28;20068;-48
2023/07/13 05:05:05;;;;;;;5.65;1.65;;;15.70;99.90;;;;;;5073531;28;20036;-52
2023/07/13 05:07:32;;;;;;;5.57;2.20;;;15.80;99.90;;;;;;5073635;28;20036;-49
2023/07/13 05:09:59;;;;;;;7.13;2.10;;;15.90;99.90;;;;;;5073611;28;20132;-48
2023/07/13 05:12:26;;;;;;;6.78;2.22;;;16.00;99.90;;;;;;5073450;28;20060;-44
2023/07/13 05:14:53;;;;;;;5.78;1.92;;;16.10;99.90;;;;;;5073508;28;20048;-47
2023/07/13 05:17:20;;;;;;;7.22;1.95;;;16.20;99.90;;;;;;5073820;28;20079;-51
2023/07/13 05:19:47;;;;;;;8.38;2.08;;;16.20;99.90;;;;;;5073511;28;20045;-46
2023/07/13 05:22:13;;;;;;;5.63;1.77;;;16.30;99.90;;;;;;5073527;28;20471;-50
2023/07/13 05:24:40;;;;;;;4.40;1.95;;;16.40;99.90;;;;;;5073439;28;20090;-50
2023/07/13 05:27:07;;;;;;;5.97;1.88;;;16.50;99.90;;;;;;5073424;28;20043;-47
2023/07/13 05:29:34;;;;;;;7.45;2.00;;;16.50;99.90;;;;;;5073305;28;20044;-51
2023/07/13 05:32:01;;;;;;;8.60;1.88;;;16.60;99.90;;;;;;5073564;28;20040;-49
2023/07/13 05:34:28;;;;;;;11.23;2.40;;;16.60;99.90;;;;;;5055213;28;20545;-50
2023/07/13 05:36:55;;;;;;;7.28;2.05;;;16.70;99.90;;;;;;5073372;28;20380;-51
2023/07/13 05:39:22;;;;;;;5.90;1.65;;;16.80;99.90;;;;;;5073129;28;20044;-48
2023/07/13 05:41:49;;;;;;;5.22;2.13;;;16.90;99.90;;;;;;5073530;28;20353;-50
2023/07/13 05:44:16;;;;;;;6.82;1.90;;;17.00;99.90;;;;;;5077254;28;20099;-49
2023/07/13 05:46:42;;;;;;;9.98;1.95;;;17.10;99.90;;;;;;5078923;28;20033;-48
2023/07/13 05:49:09;;;;;;;8.20;1.90;;;17.20;99.90;;;;;;5077458;28;20391;-51
2023/07/13 05:51:36;;;;;;;8.23;1.90;;;17.30;99.90;;;;;;5077056;28;20045;-49
2023/07/13 05:54:03;;;;;;;5.25;1.70;;;17.40;99.90;;;;;;5077063;28;20043;-52
2023/07/13 05:56:30;;;;;;;6.32;2.20;;;17.50;99.90;;;;;;5077073;28;20040;-47
2023/07/13 05:58:57;;;;;;;5.72;1.77;;;17.50;99.90;;;;;;5076954;28;20055;-45
2023/07/13 06:01:23;;;;;;;7.20;1.95;;;17.60;99.90;;;;;;5058488;28;20049;-45
2023/07/13 06:03:50;;;;;;;4.53;1.60;;;17.70;99.90;;;;;;5076607;28;20037;-46
2023/07/13 06:06:17;;;;;;;6.63;1.52;;;17.80;99.90;;;;;;5076666;28;20045;-48
2023/07/13 06:08:44;;;;;;;4.78;1.67;;;17.80;99.90;;;;;;5058695;28;20075;-50
2023/07/13 06:11:11;;;;;;;6.43;2.20;;;17.90;99.90;;;;;;5076701;28;20051;-52
2023/07/13 06:13:38;;;;;;;7.32;2.13;;;17.90;99.90;;;;;;5076851;28;20036;-50
2023/07/13 06:16:04;;;;;;;6.10;1.80;;;17.90;99.90;;;;;;5076590;28;20056;-52
2023/07/13 06:18:31;;;;;;;7.18;2.10;;;17.90;99.90;;;;;;5077270;28;20091;-51
2023/07/13 06:20:58;;;;;;;8.65;2.00;;;17.90;99.90;;;;;;5050672;28;20063;-44
2023/07/13 06:23:25;;;;;;;9.15;2.00;;;18.00;99.90;;;;;;5076334;28;20044;-47
2023/07/13 06:25:52;;;;;;;5.18;1.80;;;18.00;99.90;;;;;;5076621;28;20070;-49
2023/07/13 06:28:18;;;;;;;4.80;1.67;;;17.90;99.90;;;;;;5058658;28;20040;-48
2023/07/13 06:30:45;;;;;;;11.35;2.05;;;17.90;99.90;;;;;;5076324;28;20079;-52
2023/07/13 06:33:12;;;;;;;6.05;1.73;;;17.90;99.90;;;;;;5076024;28;20106;-46
2023/07/13 06:35:39;;;;;;;6.65;1.98;;;17.90;99.90;;;;;;5076263;28;20131;-54
2023/07/13 06:38:06;;;;;;;4.53;1.58;;;17.80;99.90;;;;;;5076259;28;20044;-48
2023/07/13 06:40:33;;;;;;;4.07;1.70;;;17.90;99.90;;;;;;5075882;28;20124;-51
2023/07/13 06:42:59;;;;;;;4.93;1.52;;;17.90;99.90;;;;;;5075741;28;20036;-46
2023/07/13 06:45:26;;;;;;;7.07;1.80;;;17.90;99.90;;;;;;5076171;28;20036;-44
2023/07/13 06:47:53;;;;;;;6.53;1.73;;;17.90;99.90;;;;;;5075920;28;20041;-51
2023/07/13 06:50:20;;;;;;;6.40;1.83;;;17.90;99.90;;;;;;5075714;28;20104;-45
2023/07/13 06:52:47;;;;;;;6.65;1.77;;;17.90;99.90;;;;;;5075946;28;20127;-47
2023/07/13 06:55:13;;;;;;;7.43;1.50;;;17.90;99.90;;;;;;5075205;28;20486;-46
2023/07/13 06:57:40;;;;;;;8.13;1.75;;;18.10;99.90;;;;;;5075765;28;20041;-47
2023/07/13 07:00:09;;;;;;;7.38;2.00;;;18.10;99.90;;;;;;5075870;28;20479;-46
2023/07/13 07:02:36;;;;;;;4.30;1.90;;;18.20;99.90;;;;;;5075163;28;20052;-47
2023/07/13 07:05:03;;;;;;;7.65;2.17;;;18.30;99.90;;;;;;5075639;28;20149;-49
2023/07/13 07:07:30;;;;;;;5.93;2.05;;;18.40;99.90;;;;;;5074935;28;20506;-46
2023/07/13 07:09:57;;;;;;;8.27;1.75;;;18.50;99.90;;;;;;5075027;28;20045;-44
2023/07/13 07:12:24;;;;;;;6.65;1.48;;;18.50;99.90;;;;;;5074756;28;20049;-47
2023/07/13 07:14:50;;;;;;;6.00;1.50;;;18.60;99.90;;;;;;5074797;28;20055;-50
2023/07/13 07:17:17;;;;;;;5.68;1.90;;;18.60;99.90;;;;;;5074633;28;20048;-48
2023/07/13 07:19:44;;;;;;;10.02;1.77;;;18.60;99.90;;;;;;5075162;28;20570;-49
2023/07/13 07:22:11;;;;;;;6.07;1.55;;;18.60;99.90;;;;;;5075335;28;20040;-47
2023/07/13 07:24:37;;;;;;;6.07;1.50;;;18.70;99.90;;;;;;5075264;28;20044;-49
2023/07/13 07:27:04;;;;;;;4.90;1.65;;;18.80;99.90;;;;;;5075351;28;20037;-45
2023/07/13 07:29:34;;;;;;;4.97;1.50;;;18.80;99.90;;;;;;5075318;28;20150;-49
2023/07/13 07:32:03;;;;;;;5.32;1.80;;;18.90;99.90;;;;;;5057883;28;20045;-49
2023/07/13 07:34:50;;;;;;;6.28;1.75;;;19.00;99.80;;;;;;5075424;28;20044;-49
2023/07/13 07:37:17;;;;;;;5.65;1.77;;;19.10;99.50;;;;;;5075102;28;20040;-50
2023/07/13 07:39:47;;;;;;;5.60;1.70;;;19.10;99.30;;;;;;5074963;28;20047;-45
2023/07/13 07:42:33;;;;;;;5.85;1.52;;;19.30;99.40;;;;;;5075050;28;20044;-51
2023/07/13 07:45:00;;;;;;;5.80;1.60;;;19.40;99.30;;;;;;5057093;28;20039;-45
2023/07/13 07:47:28;;;;;;;4.93;1.60;;;19.50;98.80;;;;;;5074839;28;20039;-48
2023/07/13 07:49:55;;;;;;;3.92;1.67;;;19.60;98.50;;;;;;5074829;28;20131;-45
2023/07/13 07:52:21;;;;;;;5.40;1.48;;;19.70;98.80;;;;;;5074922;28;20055;-48
2023/07/13 07:54:48;;;;;;;4.70;1.48;;;19.70;98.70;;;;;;5074611;28;20123;-47
2023/07/13 07:57:18;;;;;;;5.05;1.65;;;19.70;98.10;;;;;;5074864;28;20498;-47
2023/07/13 08:00:04;;;;;;;7.55;1.40;;;19.80;98.40;;;;;;5067640;28;20037;-45
2023/07/13 08:02:41;;;;;;;;;;;19.90;98.10;;;;;;5074928;28;20052;-45
2023/07/13 08:05:27;;;;;;;4.68;1.40;;;20.00;97.60;;;;;;5073357;28;19924;-46
2023/07/13 08:07:57;;;;;;;7.07;1.63;;;20.00;97.30;;;;;;5074595;28;20040;-45
2023/07/13 08:10:24;;;;;;;4.75;1.48;;;20.00;97.50;;;;;;5075060;28;20479;-46
2023/07/13 08:12:51;;;;;;;3.72;1.13;;;20.00;97.60;;;;;;5074551;28;20048;-45
2023/07/13 08:15:20;;;;;;;4.13;1.30;;;20.10;97.80;;;;;;5074643;28;20029;-51
2023/07/13 08:17:47;;;;;;;5.45;1.60;;;20.10;97.70;;;;;;5074648;28;20047;-47
2023/07/13 08:20:14;;;;;;;3.88;1.50;;;20.20;97.40;;;;;;5074267;28;20032;-47
2023/07/13 08:22:41;;;;;;;4.28;1.60;;;20.20;97.70;;;;;;5074364;28;20048;-52
2023/07/13 08:25:08;;;;;;;7.53;1.45;;;20.30;97.90;;;;;;5074293;28;20036;-51
2023/07/13 08:27:35;;;;;;;6.80;1.70;;;20.40;97.90;;;;;;5074426;28;20450;-48
2023/07/13 08:30:02;;;;;;;6.00;1.60;;;20.50;97.70;;;;;;5074062;28;20044;-49
2023/07/13 08:32:28;;;;;;;5.80;1.70;;;20.60;97.60;;;;;;5073969;28;20044;-49
2023/07/13 08:34:55;;;;;;;6.13;1.70;;;20.70;97.60;;;;;;5056287;28;20036;-49
2023/07/13 08:37:22;;;;;;;4.82;1.52;;;20.70;97.10;;;;;;5074044;28;20032;-47
2023/07/13 08:39:49;;;;;;;5.82;1.55;;;20.70;97.30;;;;;;5074070;28;20044;-46
2023/07/13 08:42:15;;;;;;;6.65;1.55;;;20.70;97.50;;;;;;5073773;28;20048;-47
2023/07/13 08:44:42;;;;;;;6.18;1.60;;;20.80;97.40;;;;;;5073515;28;20032;-48
2023/07/13 08:47:09;;;;;;;6.30;1.77;;;20.90;97.30;;;;;;5074009;28;20048;-47
2023/07/13 08:49:36;;;;;;;3.92;1.45;;;21.00;97.20;;;;;;5074238;28;20440;-47
2023/07/13 08:52:03;;;;;;;7.20;1.58;;;21.00;97.00;;;;;;5056414;28;20040;-47
2023/07/13 08:54:30;;;;;;;5.72;1.50;;;21.10;96.90;;;;;;5073795;28;20475;-44
2023/07/13 08:56:57;;;;;;;7.32;1.67;;;21.10;96.50;;;;;;5056440;28;20071;-48
2023/07/13 08:59:25;;;;;;;3.85;1.33;;;21.10;96.70;;;;;;5073553;28;20529;-48
2023/07/13 09:01:52;;;;;;;6.30;1.90;;;21.20;96.50;;;;;;5073519;28;20052;-46
2023/07/13 09:04:24;;;;;;;5.22;1.75;;;21.10;96.70;;;;;;5073568;28;20039;-49
2023/07/13 09:06:50;;;;;;;6.50;1.65;;;21.10;96.60;;;;;;5056079;28;20044;-46
2023/07/13 09:09:17;;;;;;;4.22;1.60;;;21.10;96.50;;;;;;5073840;28;20094;-46
2023/07/13 09:11:45;;;;;;;7.10;1.60;;;21.00;96.50;;;;;;5073485;28;20039;-47
2023/07/13 09:14:12;;;;;;;5.95;1.60;;;21.00;96.40;;;;;;5073364;28;20071;-48
2023/07/13 09:16:39;;;;;;;5.20;1.80;;;21.00;96.30;;;;;;5073446;28;20050;-47
2023/07/13 09:19:06;;;;;;;4.95;1.77;;;21.10;96.60;;;;;;5073558;28;20072;-48
2023/07/13 09:21:33;;;;;;;8.25;2.00;;;21.20;96.50;;;;;;5073493;28;20044;-46
2023/07/13 09:23:59;;;;;;;3.85;1.55;;;21.10;96.40;;;;;;5073308;28;20045;-52
2023/07/13 09:26:26;;;;;;;6.85;1.60;;;21.10;96.60;;;;;;5073144;28;20127;-49
2023/07/13 09:28:53;;;;;;;3.25;1.38;;;21.20;96.80;;;;;;5073867;28;20127;-46
2023/07/13 09:31:21;;;;;;;4.97;1.63;;;21.20;96.40;;;;;;5073339;28;20033;-54
2023/07/13 09:33:50;;;;;;;3.47;1.55;;;21.30;96.10;;;;;;5073175;28;20134;-49
2023/07/13 09:36:17;;;;;;;4.03;1.33;;;21.30;96.20;;;;;;5073201;28;20135;-50
2023/07/13 09:38:45;;;;;;;5.40;1.42;;;21.40;95.30;;;;;;5055102;28;20059;-49
2023/07/13 09:41:11;;;;;;;5.57;1.77;;;21.60;95.70;;;;;;5073356;28;20063;-51
2023/07/13 09:43:39;;;;;;;3.58;1.20;;;21.80;95.40;;;;;;5055475;28;20032;-47
2023/07/13 09:46:05;;;;;;;4.82;1.25;;;21.80;94.90;;;;;;5073395;28;20043;-48
2023/07/13 09:48:32;;;;;;;3.22;1.17;;;21.90;95.00;;;;;;5073253;28;20033;-52
2023/07/13 09:50:59;;;;;;;3.40;1.60;;;22.00;95.00;;;;;;5073460;28;20040;-50
2023/07/13 09:53:26;;;;;;;3.75;1.30;;;22.20;95.20;;;;;;5073426;28;20076;-47
2023/07/13 09:55:52;;;;;;;4.95;1.10;;;22.20;94.70;;;;;;5073217;28;20455;-47
2023/07/13 09:58:19;;;;;;;3.35;1.17;;;22.20;94.20;;;;;;5073209;28;20116;-48
2023/07/13 10:00:46;;;;;;;5.28;1.02;;;22.30;94.40;;;;;;5073376;28;20045;-49
2023/07/13 10:03:13;;;;;;;3.25;1.00;;;22.40;94.00;;;;;;5072801;28;20139;-46
2023/07/13 10:05:40;;;;;;;4.57;1.20;;;22.60;93.40;;;;;;5073252;28;20048;-49
2023/07/13 10:08:07;;;;;;;4.15;1.08;;;22.60;93.50;;;;;;5072937;28;20136;-46
2023/07/13 10:10:35;;;;;;;4.30;1.20;;;22.80;93.40;;;;;;5055690;28;20463;-48
2023/07/13 10:13:05;;;;;;;3.05;1.10;;;22.90;93.20;;;;;;5072983;28;20047;-51
2023/07/13 10:15:32;;;;;;;3.45;1.05;;;23.00;93.20;;;;;;5072931;28;20089;-46
2023/07/13 10:17:58;;;;;;;5.82;1.50;;;23.00;92.90;;;;;;5073164;28;20446;-47
2023/07/13 10:20:25;;;;;;;4.53;1.25;;;23.00;93.10;;;;;;5072771;28;20087;-48
2023/07/13 10:22:52;;;;;;;4.82;1.23;;;22.90;92.80;;;;;;5072839;28;20040;-47
2023/07/13 10:25:19;;;;;;;6.32;1.20;;;22.80;92.80;;;;;;5055440;28;20044;-48
2023/07/13 10:27:47;;;;;;;5.60;1.30;;;22.70;92.90;;;;;;5073135;28;20124;-45
2023/07/13 10:30:14;;;;;;;7.30;1.25;;;22.70;93.20;;;;;;5075318;28;20047;-45
2023/07/13 10:32:42;;;;;;;3.28;1.00;;;22.80;92.90;;;;;;5076333;28;20399;-46
2023/07/13 10:35:09;;;;;;;1.95;0.85;;;22.90;92.80;;;;;;5076229;28;20040;-47
2023/07/13 10:37:36;;;;;;;4.47;1.17;;;22.90;92.10;;;;;;5076368;28;20072;-49
2023/07/13 10:40:03;;;;;;;3.72;1.20;;;22.80;92.00;;;;;;5076224;28;20538;-48
2023/07/13 10:42:30;;;;;;;3.22;1.17;;;22.80;92.20;;;;;;5076068;28;20436;-49
2023/07/13 10:44:57;;;;;;;5.10;1.30;;;22.80;92.40;;;;;;5076402;28;20040;-47
2023/07/13 10:47:24;;;;;;;2.90;1.33;;;22.80;92.20;;;;;;5076488;28;20033;-48
2023/07/13 10:49:51;;;;;;;8.13;1.48;;;22.60;92.30;;;;;;5076231;28;20037;-48
2023/07/13 10:52:18;;;;;;;4.10;1.55;;;22.50;95.00;;;;;;5076394;28;20051;-49
2023/07/13 10:54:44;;;;;;;7.10;1.63;;;22.20;95.90;;;;;;5076022;28;20463;-48
2023/07/13 10:57:11;;;;;;;5.65;1.40;;;22.00;96.70;;;;;;5076347;28;20476;-51
2023/07/13 10:59:40;;;;;;;4.50;1.50;;;21.70;97.70;;;;;;5076192;28;20060;-46
2023/07/13 11:02:07;;;;;;;5.18;1.70;;;21.50;98.60;;;;;;5075626;28;20133;-47
2023/07/13 11:04:34;;;;;;;4.10;1.20;;;21.60;99.50;;;;;;5075713;28;20040;-51
2023/07/13 11:07:04;;;;;;;4.97;1.35;;;21.60;99.90;;;;;;5075776;28;20041;-51
2023/07/13 11:09:36;;;;;;;3.58;1.40;;;21.70;99.50;;;;;;5076146;28;20037;-50
2023/07/13 11:12:03;;;;;;;3.58;1.15;;;21.80;99.10;;;;;;5075647;28;20032;-48
2023/07/13 11:14:30;;;;;;;4.15;1.00;;;22.00;97.90;;;;;;5075463;28;20043;-53
2023/07/13 11:16:57;;;;;;;3.88;1.27;;;22.10;98.30;;;;;;5057631;28;20044;-51
2023/07/13 11:19:25;;;;;;;3.35;1.00;;;22.20;98.00;;;;;;5075606;28;20159;-45
2023/07/13 11:21:52;;;;;;;4.20;1.30;;;22.20;97.60;;;;;;5075484;28;20514;-49
2023/07/13 11:24:19;;;;;;;4.75;1.20;;;22.30;96.90;;;;;;5075525;28;20044;-50
2023/07/13 11:26:46;;;;;;;4.13;1.30;;;22.30;95.70;;;;;;5057865;28;20048;-49
2023/07/13 11:29:13;;;;;;;4.05;1.30;;;22.20;95.70;;;;;;5075424;28;20434;-48
2023/07/13 11:31:41;;;;;;;2.97;0.95;;;22.20;95.90;;;;;;5075544;28;20094;-46
2023/07/13 11:34:08;;;;;;;4.80;1.50;;;22.30;95.20;;;;;;5075504;28;20063;-49
2023/07/13 11:36:35;;;;;;;2.70;1.20;;;22.40;95.50;;;;;;5075489;28;20071;-51
2023/07/13 11:39:02;;;;;;;4.78;1.35;;;22.50;95.00;;;;;;5075238;28;20045;-47
2023/07/13 11:41:29;;;;;;;6.13;1.10;;;22.70;95.10;;;;;;5075186;28;20068;-50
2023/07/13 11:43:56;;;;;;;2.40;1.10;;;22.80;94.50;;;;;;5075030;28;20036;-47
2023/07/13 11:46:22;;;;;;;3.30;1.10;;;22.80;94.20;;;;;;5075001;28;20033;-53
2023/07/13 11:48:50;;;;;;;3.30;1.35;;;22.70;93.80;;;;;;5074903;28;20098;-47
2023/07/13 11:51:17;;;;;;;3.08;1.17;;;22.60;93.40;;;;;;5075090;28;20116;-48
2023/07/13 11:53:44;;;;;;;3.15;1.10;;;22.50;93.20;;;;;;5074974;28;20127;-51
2023/07/13 11:56:11;;;;;;;3.95;1.15;;;22.50;93.50;;;;;;5074761;28;20479;-48
2023/07/13 11:58:38;;;;;;;3.25;1.08;;;22.50;93.70;;;;;;5074960;28;20075;-48
2023/07/13 12:01:05;;;;;;;5.07;1.40;;;22.40;93.80;;;;;;5074738;28;20392;-48
2023/07/13 12:03:31;;;;;;;3.08;1.25;;;22.50;94.20;;;;;;5074682;28;20053;-49
2023/07/13 12:05:59;;;;;;;2.60;1.25;;;22.50;94.20;;;;;;5056545;28;20515;-47
2023/07/13 12:08:26;;;;;;;5.85;1.48;;;22.40;93.60;;;;;;5074502;28;20450;-54
2023/07/13 12:10:53;;;;;;;4.72;1.48;;;22.30;93.90;;;;;;5074749;28;20498;-46
2023/07/13 12:13:20;;;;;;;4.05;1.40;;;22.10;94.00;;;;;;5074337;28;20040;-50
2023/07/13 12:15:48;;;;;;;3.38;1.20;;;21.70;95.90;;;;;;5074545;28;20058;-51
2023/07/13 12:18:15;;;;;;;6.93;1.45;;;21.30;96.80;;;;;;5074529;28;20044;-50
2023/07/13 12:20:42;;;;;;;7.15;1.70;;;20.80;97.70;;;;;;5074646;28;20124;-55
2023/07/13 12:23:09;;;;;;;4.40;1.35;;;20.40;99.60;;;;;;5074344;28;20139;-48
2023/07/13 12:25:38;;;;;;;3.08;1.52;;;20.20;99.90;;;;;;5074275;28;20037;-49
2023/07/13 12:28:04;;;;;;;2.72;1.30;;;20.10;99.90;;;;;;5074096;28;20037;-52
2023/07/13 12:30:33;;;;;;;5.78;1.90;;;20.10;99.90;;;;;;5074253;28;20040;-50
2023/07/13 12:33:00;;;;;;;5.72;1.80;;;20.20;99.90;;;;;;5074241;28;20538;-52
2023/07/13 12:35:29;;;;;;;4.03;1.60;;;20.40;99.90;;;;;;5074256;28;20049;-53
2023/07/13 12:37:57;;;;;;;3.35;1.40;;;20.50;99.90;;;;;;5073835;28;20047;-49
2023/07/13 12:40:24;;;;;;;5.05;1.70;;;20.60;99.90;;;;;;5073888;28;20033;-46
2023/07/13 12:42:51;;;;;;;3.65;1.50;;;20.80;99.90;;;;;;5073551;28;20130;-50
2023/07/13 12:45:18;;;;;;;3.25;1.30;;;20.90;99.90;;;;;;5073998;28;20072;-54